Aviation Digital Data Service (ADDS)

Output produced by METARs form (2335 UTC 22 November 2014)
found at http://aviationweather.gov/adds/metars/
 
KVQQ 222228Z 2222/2318 09010KT P6SM VCSH SCT025 OVC035 
     TEMPO 2222/2302 5SM -SHRA BKN025 
     FM230600 13010KT P6SM VCTS SCT012 OVC020CB WS020/15040KT 
     TEMPO 2308/2312 3SM RA BR SCT008 OVC015 
     FM231600 18014G22KT 6SM -SHRA SCT025 OVC035